Time;durP1;ratioP1;P1;durP2;ratioP2;P2;SDS_P1;SDS_P2;PMS_P1;PMS_P2;Temp;Humidity;BMP_temperature;BMP_pressure;BME280_temperature;BME280_humidity;BME280_pressure;Samples;Min_cycle;Max_cycle;Signal;HPM_P1;HPM_P2
2024/02/25 00:01:00;;;;;;;4.70;1.63;;;2.00;100.00;;;;;;5042669;28;20120;-72
2024/02/25 00:03:27;;;;;;;2.92;1.60;;;2.00;100.00;;;;;;5043616;28;20045;-73
2024/02/25 00:05:54;;;;;;;2.42;1.63;;;2.00;100.00;;;;;;5049798;28;20053;-73
2024/02/25 00:08:21;;;;;;;5.50;1.90;;;2.10;100.00;;;;;;5058727;28;20052;-72
2024/02/25 00:10:48;;;;;;;3.72;1.90;;;2.00;100.00;;;;;;5042459;28;20634;-72
2024/02/25 00:13:15;;;;;;;2.88;1.83;;;2.10;100.00;;;;;;5043787;28;20071;-72
2024/02/25 00:15:42;;;;;;;2.63;1.67;;;2.10;100.00;;;;;;5042935;28;20114;-72
2024/02/25 00:18:09;;;;;;;5.25;1.70;;;2.20;100.00;;;;;;5048254;28;20155;-73
2024/02/25 00:20:36;;;;;;;3.22;2.00;;;2.20;100.00;;;;;;5042737;28;20153;-73
2024/02/25 00:23:03;;;;;;;2.85;2.10;;;2.20;100.00;;;;;;5046805;28;20068;-73
2024/02/25 00:25:29;;;;;;;3.33;1.88;;;2.10;100.00;;;;;;5041117;28;20049;-73
2024/02/25 00:27:56;;;;;;;2.97;1.40;;;2.10;100.00;;;;;;5046876;28;20160;-73
2024/02/25 00:30:23;;;;;;;4.63;1.40;;;2.10;100.00;;;;;;5062145;28;20122;-73
2024/02/25 00:32:50;;;;;;;3.17;1.67;;;2.10;100.00;;;;;;5040603;28;20494;-73
2024/02/25 00:35:17;;;;;;;2.40;1.42;;;2.10;100.00;;;;;;5047752;28;20083;-73
2024/02/25 00:37:46;;;;;;;3.80;1.58;;;2.00;100.00;;;;;;5041386;28;20056;-73
2024/02/25 00:40:13;;;;;;;2.40;1.38;;;2.00;100.00;;;;;;5038196;28;20056;-73
2024/02/25 00:42:40;;;;;;;2.42;1.63;;;2.00;100.00;;;;;;5053984;28;20056;-73
2024/02/25 00:45:07;;;;;;;2.70;1.50;;;2.00;100.00;;;;;;5043360;28;20076;-73
2024/02/25 00:47:34;;;;;;;4.35;1.63;;;1.90;100.00;;;;;;5053577;28;20049;-73
2024/02/25 00:50:02;;;;;;;9.43;2.05;;;1.90;100.00;;;;;;5045045;28;20053;-73
2024/02/25 00:52:31;;;;;;;2.33;1.65;;;1.90;100.00;;;;;;5048920;28;20052;-73
2024/02/25 00:54:59;;;;;;;2.58;1.58;;;1.80;100.00;;;;;;5066963;28;20077;-73
2024/02/25 00:57:26;;;;;;;3.20;1.48;;;1.80;100.00;;;;;;5045005;28;20671;-73
2024/02/25 00:59:53;;;;;;;5.30;1.67;;;1.80;100.00;;;;;;5047018;28;20575;-73
2024/02/25 01:02:20;;;;;;;2.30;1.58;;;1.80;100.00;;;;;;5045535;28;20473;-73
2024/02/25 01:04:47;;;;;;;2.60;1.60;;;1.70;100.00;;;;;;5044646;28;20590;-73
2024/02/25 01:07:14;;;;;;;3.05;1.70;;;1.70;100.00;;;;;;5044066;28;20186;-73
2024/02/25 01:09:40;;;;;;;4.22;1.85;;;1.70;100.00;;;;;;5048559;28;20155;-73
2024/02/25 01:12:07;;;;;;;3.75;1.58;;;1.60;100.00;;;;;;5039481;28;20118;-73
2024/02/25 01:14:34;;;;;;;6.47;1.88;;;1.50;100.00;;;;;;5051533;28;20053;-73
2024/02/25 01:17:01;;;;;;;2.40;1.48;;;1.50;100.00;;;;;;5051001;28;20056;-73
2024/02/25 01:19:28;;;;;;;2.13;1.27;;;1.40;100.00;;;;;;5046099;28;20132;-73
2024/02/25 01:21:55;;;;;;;8.13;1.83;;;1.40;100.00;;;;;;5046338;28;20115;-73
2024/02/25 01:24:21;;;;;;;2.42;1.67;;;1.40;100.00;;;;;;5047405;28;20052;-73
2024/02/25 01:26:48;;;;;;;3.38;1.42;;;1.40;100.00;;;;;;5050972;28;20951;-73
2024/02/25 01:29:15;;;;;;;3.20;1.90;;;1.30;100.00;;;;;;5045845;28;20079;-73
2024/02/25 01:31:46;;;;;;;4.10;1.70;;;1.30;100.00;;;;;;5042259;28;20121;-73
2024/02/25 01:34:13;;;;;;;5.70;2.00;;;1.30;100.00;;;;;;5046846;28;20044;-73
2024/02/25 01:36:41;;;;;;;4.15;1.80;;;1.30;100.00;;;;;;5049737;28;20524;-73
2024/02/25 01:39:09;;;;;;;4.45;1.70;;;1.30;100.00;;;;;;5042508;28;20064;-73
2024/02/25 01:41:36;;;;;;;2.65;1.67;;;1.40;100.00;;;;;;5048031;28;20065;-73
2024/02/25 01:44:03;;;;;;;4.78;1.60;;;1.50;100.00;;;;;;5053054;28;20151;-73
2024/02/25 01:46:30;;;;;;;7.35;2.22;;;1.50;100.00;;;;;;5045863;28;20134;-73
2024/02/25 01:48:57;;;;;;;5.95;1.40;;;1.50;100.00;;;;;;5045456;28;20080;-73
2024/02/25 01:51:25;;;;;;;4.18;1.50;;;1.50;100.00;;;;;;5049485;28;20076;-73
2024/02/25 01:53:55;;;;;;;2.33;1.38;;;1.50;100.00;;;;;;5048446;28;20049;-73
2024/02/25 01:56:22;;;;;;;3.38;1.73;;;1.50;100.00;;;;;;5053355;28;20040;-73
2024/02/25 01:58:53;;;;;;;2.88;1.60;;;1.50;100.00;;;;;;5044919;28;20053;-73
2024/02/25 02:01:20;;;;;;;2.72;1.60;;;1.50;100.00;;;;;;5043597;28;20045;-73
2024/02/25 02:03:47;;;;;;;5.38;1.25;;;1.50;100.00;;;;;;5048737;28;20458;-73
2024/02/25 02:06:14;;;;;;;6.85;1.70;;;1.40;100.00;;;;;;5045254;28;20056;-72
2024/02/25 02:08:41;;;;;;;3.65;1.55;;;1.40;100.00;;;;;;5049114;28;20084;-72
2024/02/25 02:11:16;;;;;;;2.08;1.42;;;1.40;100.00;;;;;;5046024;28;20048;-72
2024/02/25 02:13:43;;;;;;;7.95;2.05;;;1.30;100.00;;;;;;5043499;28;20130;-72
2024/02/25 02:16:13;;;;;;;3.30;1.30;;;1.30;100.00;;;;;;5047277;28;20052;-72
2024/02/25 02:18:44;;;;;;;3.30;1.65;;;1.30;100.00;;;;;;5038729;28;20057;-72
2024/02/25 02:21:18;;;;;;;2.75;1.30;;;1.20;100.00;;;;;;5058400;28;20118;-72
2024/02/25 02:23:45;;;;;;;4.30;1.63;;;1.20;100.00;;;;;;5056817;28;20672;-72
2024/02/25 02:26:12;;;;;;;5.97;1.38;;;1.20;100.00;;;;;;5051073;28;20062;-72
2024/02/25 02:28:39;;;;;;;2.40;1.23;;;1.30;100.00;;;;;;5044126;28;20579;-72
2024/02/25 02:31:06;;;;;;;5.28;1.52;;;1.30;100.00;;;;;;5043345;28;20557;-72
2024/02/25 02:33:33;;;;;;;4.00;1.40;;;1.30;100.00;;;;;;5042537;28;20082;-72
2024/02/25 02:36:00;;;;;;;17.13;2.03;;;1.30;100.00;;;;;;5045465;28;20051;-72
2024/02/25 02:38:27;;;;;;;2.45;1.40;;;1.30;100.00;;;;;;5044933;28;20412;-72
2024/02/25 02:40:54;;;;;;;2.63;1.20;;;1.20;100.00;;;;;;5051036;28;20053;-72
2024/02/25 02:43:23;;;;;;;7.28;1.60;;;1.20;100.00;;;;;;5047156;28;20061;-72
2024/02/25 02:45:51;;;;;;;2.55;1.13;;;1.20;100.00;;;;;;5052055;28;20061;-72
2024/02/25 02:48:18;;;;;;;2.10;1.38;;;1.20;100.00;;;;;;5044493;28;20053;-72
2024/02/25 02:50:46;;;;;;;2.97;1.15;;;1.20;100.00;;;;;;5042348;28;20130;-72
2024/02/25 02:53:12;;;;;;;2.92;1.45;;;1.10;100.00;;;;;;5049320;28;20098;-72
2024/02/25 02:55:39;;;;;;;2.25;1.50;;;1.10;100.00;;;;;;5055757;28;20056;-72
2024/02/25 02:58:06;;;;;;;1.65;0.98;;;1.00;100.00;;;;;;5044340;28;20420;-72
2024/02/25 03:00:34;;;;;;;3.00;1.25;;;0.90;100.00;;;;;;5042757;28;20502;-72
2024/02/25 03:03:02;;;;;;;2.03;1.05;;;0.90;100.00;;;;;;5057518;28;20085;-72
2024/02/25 03:05:29;;;;;;;3.20;0.95;;;0.90;100.00;;;;;;5058323;28;20067;-72
2024/02/25 03:07:56;;;;;;;2.58;1.00;;;0.90;100.00;;;;;;5044101;28;20044;-72
2024/02/25 03:10:22;;;;;;;2.20;0.90;;;0.90;100.00;;;;;;5042640;28;20130;-72
2024/02/25 03:12:50;;;;;;;8.30;1.55;;;0.90;100.00;;;;;;5046705;28;20048;-72
2024/02/25 03:15:17;;;;;;;2.75;1.23;;;1.00;100.00;;;;;;5044270;28;20371;-72
2024/02/25 03:17:45;;;;;;;3.75;1.30;;;0.90;100.00;;;;;;5054218;28;20191;-72
2024/02/25 03:20:13;;;;;;;7.22;1.50;;;0.90;100.00;;;;;;5046374;28;20893;-72
2024/02/25 03:22:40;;;;;;;1.60;1.13;;;0.90;100.00;;;;;;5035401;28;20053;-72
2024/02/25 03:25:08;;;;;;;4.30;1.52;;;0.90;100.00;;;;;;5044884;28;20045;-72
2024/02/25 03:27:39;;;;;;;2.33;1.00;;;1.00;100.00;;;;;;5044958;28;20184;-72
2024/02/25 03:30:10;;;;;;;1.75;1.02;;;0.90;100.00;;;;;;5042737;28;20060;-72
2024/02/25 03:32:38;;;;;;;1.92;1.17;;;0.90;100.00;;;;;;5041974;28;20041;-72
2024/02/25 03:35:05;;;;;;;3.33;1.10;;;0.90;100.00;;;;;;5058125;28;20173;-72
2024/02/25 03:37:32;;;;;;;2.13;1.25;;;0.90;100.00;;;;;;5042610;28;20078;-72
2024/02/25 03:39:59;;;;;;;1.77;1.20;;;0.90;100.00;;;;;;5044165;28;20048;-72
2024/02/25 03:42:27;;;;;;;3.13;1.30;;;0.90;100.00;;;;;;5049633;28;20056;-72
2024/02/25 03:44:54;;;;;;;2.70;1.40;;;0.90;100.00;;;;;;5041029;28;20712;-72
2024/02/25 03:47:23;;;;;;;1.50;0.80;;;0.90;100.00;;;;;;5055770;28;20110;-72
2024/02/25 03:49:50;;;;;;;1.92;1.20;;;0.90;100.00;;;;;;5042962;28;20076;-72
2024/02/25 03:52:17;;;;;;;1.77;0.98;;;0.90;100.00;;;;;;5042141;28;20732;-72
2024/02/25 03:54:47;;;;;;;12.30;1.65;;;0.90;100.00;;;;;;5051511;28;20048;-72
2024/02/25 03:57:14;;;;;;;3.00;1.25;;;0.90;100.00;;;;;;5043462;28;20655;-72
2024/02/25 03:59:41;;;;;;;2.70;1.17;;;0.90;100.00;;;;;;5042977;28;20082;-72
2024/02/25 04:02:07;;;;;;;2.47;1.20;;;0.80;100.00;;;;;;5049374;28;20048;-72
2024/02/25 04:04:34;;;;;;;4.90;1.38;;;0.80;100.00;;;;;;5042793;28;20056;-72
2024/02/25 04:07:01;;;;;;;2.83;1.10;;;0.80;100.00;;;;;;5042904;28;20110;-72
2024/02/25 04:09:28;;;;;;;3.70;1.20;;;0.80;100.00;;;;;;5056260;28;20084;-72
2024/02/25 04:11:54;;;;;;;1.90;1.35;;;0.80;100.00;;;;;;5052819;28;20056;-72
2024/02/25 04:14:21;;;;;;;3.05;0.90;;;0.80;100.00;;;;;;5044630;28;20052;-72
2024/02/25 04:16:48;;;;;;;2.38;0.90;;;0.80;100.00;;;;;;5041331;28;20045;-72
2024/02/25 04:19:15;;;;;;;2.10;1.27;;;0.70;100.00;;;;;;5042952;28;20590;-72
2024/02/25 04:21:42;;;;;;;3.97;1.00;;;0.70;100.00;;;;;;5045484;28;20061;-72
2024/02/25 04:24:09;;;;;;;4.00;1.40;;;0.70;100.00;;;;;;5045153;28;20461;-72
2024/02/25 04:26:35;;;;;;;2.60;1.23;;;0.80;100.00;;;;;;5048090;28;20481;-72
2024/02/25 04:29:02;;;;;;;2.97;0.93;;;0.80;100.00;;;;;;5044369;28;20048;-72
2024/02/25 04:31:29;;;;;;;4.07;1.20;;;0.80;100.00;;;;;;5045559;28;20056;-72
2024/02/25 04:33:56;;;;;;;6.25;1.08;;;0.90;100.00;;;;;;5044887;28;20052;-72
2024/02/25 04:36:23;;;;;;;2.53;1.35;;;0.90;100.00;;;;;;5060987;28;20051;-72
2024/02/25 04:38:50;;;;;;;2.85;1.50;;;1.00;100.00;;;;;;5061928;28;20056;-72
2024/02/25 04:41:17;;;;;;;8.32;1.27;;;1.00;100.00;;;;;;5046836;28;20044;-72
2024/02/25 04:43:43;;;;;;;3.50;1.17;;;1.00;100.00;;;;;;5043025;28;20049;-72
2024/02/25 04:46:10;;;;;;;3.08;1.15;;;1.00;100.00;;;;;;5044284;28;20057;-72
2024/02/25 04:48:38;;;;;;;2.17;1.45;;;1.00;100.00;;;;;;5046796;28;20057;-73
2024/02/25 04:51:05;;;;;;;3.97;1.45;;;1.10;100.00;;;;;;5050563;28;20723;-73
2024/02/25 04:53:32;;;;;;;3.03;1.60;;;1.10;100.00;;;;;;5049519;28;20056;-72
2024/02/25 04:56:02;;;;;;;2.38;1.23;;;1.10;100.00;;;;;;5047267;28;20045;-72
2024/02/25 04:58:29;;;;;;;4.93;1.33;;;1.10;100.00;;;;;;5045651;28;20037;-72
2024/02/25 05:00:55;;;;;;;6.97;1.50;;;1.20;100.00;;;;;;5045467;28;20056;-72
2024/02/25 05:03:22;;;;;;;3.60;1.23;;;1.20;100.00;;;;;;5043342;28;20056;-72
2024/02/25 05:05:50;;;;;;;3.13;1.25;;;1.20;100.00;;;;;;5043690;28;20057;-73
2024/02/25 05:08:17;;;;;;;5.53;1.35;;;1.20;100.00;;;;;;5046842;28;20049;-72
2024/02/25 05:10:43;;;;;;;2.40;1.25;;;1.20;100.00;;;;;;5045576;28;20090;-72
2024/02/25 05:13:10;;;;;;;2.67;1.27;;;1.20;100.00;;;;;;5046857;28;20148;-72
2024/02/25 05:15:37;;;;;;;3.83;1.15;;;1.20;100.00;;;;;;5056301;28;20094;-72
2024/02/25 05:18:05;;;;;;;2.47;1.58;;;1.20;100.00;;;;;;5051144;28;20061;-72
2024/02/25 05:20:32;;;;;;;2.78;1.40;;;1.20;100.00;;;;;;5047446;28;20063;-72
2024/02/25 05:22:59;;;;;;;3.28;1.63;;;1.20;100.00;;;;;;5046910;28;20055;-72
2024/02/25 05:25:26;;;;;;;2.75;1.10;;;1.10;100.00;;;;;;5057583;28;20081;-73
2024/02/25 05:27:53;;;;;;;2.00;1.10;;;1.10;100.00;;;;;;5049160;28;20048;-73
2024/02/25 05:30:20;;;;;;;4.68;1.40;;;1.10;100.00;;;;;;5052711;28;20053;-73
2024/02/25 05:32:46;;;;;;;4.43;1.75;;;1.00;100.00;;;;;;5044383;28;20136;-73
2024/02/25 05:35:13;;;;;;;3.92;1.70;;;1.00;100.00;;;;;;5045089;28;20049;-73
2024/02/25 05:37:40;;;;;;;3.97;1.63;;;1.00;100.00;;;;;;5051544;28;20698;-72
2024/02/25 05:40:09;;;;;;;3.85;1.90;;;1.00;100.00;;;;;;5046532;28;20456;-73
2024/02/25 05:42:36;;;;;;;5.25;2.13;;;1.00;100.00;;;;;;5065240;28;20063;-73
2024/02/25 05:45:03;;;;;;;11.02;2.22;;;1.00;100.00;;;;;;5053633;28;20123;-73
2024/02/25 05:47:31;;;;;;;3.72;1.80;;;1.00;100.00;;;;;;5068282;28;20162;-73
2024/02/25 05:49:58;;;;;;;4.90;1.95;;;1.00;100.00;;;;;;5053267;28;20457;-73
2024/02/25 05:52:25;;;;;;;4.45;2.42;;;0.90;100.00;;;;;;5056572;28;20056;-73
2024/02/25 05:54:52;;;;;;;5.90;2.38;;;0.90;100.00;;;;;;5049331;28;20061;-72
2024/02/25 05:57:19;;;;;;;5.40;2.85;;;0.90;100.00;;;;;;5062878;28;20055;-75
2024/02/25 05:59:49;;;;;;;5.57;2.65;;;0.90;100.00;;;;;;5052269;28;20536;-75
2024/02/25 06:02:15;;;;;;;6.95;2.78;;;0.90;100.00;;;;;;5044307;28;20060;-75
2024/02/25 06:04:42;;;;;;;5.85;3.13;;;0.90;100.00;;;;;;5045081;28;20133;-75
2024/02/25 06:07:09;;;;;;;6.22;2.75;;;0.90;100.00;;;;;;5049926;28;20851;-71
2024/02/25 06:09:36;;;;;;;5.80;3.10;;;0.90;100.00;;;;;;5049674;28;20048;-74
2024/02/25 06:12:03;;;;;;;4.43;2.47;;;1.00;100.00;;;;;;5044985;28;20164;-72
2024/02/25 06:14:31;;;;;;;6.20;2.72;;;1.00;100.00;;;;;;5045890;28;20425;-74
2024/02/25 06:16:58;;;;;;;5.55;2.85;;;1.00;100.00;;;;;;5044303;28;20068;-71
2024/02/25 06:19:25;;;;;;;7.13;3.58;;;1.00;100.00;;;;;;5040504;28;20743;-71
2024/02/25 06:21:52;;;;;;;7.07;3.40;;;1.10;100.00;;;;;;5055878;28;20073;-72
2024/02/25 06:24:19;;;;;;;5.85;2.72;;;1.10;100.00;;;;;;5065719;28;20056;-71
2024/02/25 06:26:46;;;;;;;7.85;3.47;;;1.10;100.00;;;;;;5043412;28;20515;-72
2024/02/25 06:29:14;;;;;;;11.52;3.30;;;1.10;100.00;;;;;;5042561;28;20598;-70
2024/02/25 06:31:43;;;;;;;7.03;3.03;;;1.20;100.00;;;;;;5044705;28;20044;-71
2024/02/25 06:34:11;;;;;;;7.10;3.53;;;1.20;100.00;;;;;;5046626;28;20052;-71
2024/02/25 06:36:38;;;;;;;6.25;2.75;;;1.20;100.00;;;;;;5050038;28;20056;-68
2024/02/25 06:39:08;;;;;;;6.38;3.40;;;1.30;100.00;;;;;;5044912;28;20049;-72
2024/02/25 06:41:36;;;;;;;5.28;2.97;;;1.30;100.00;;;;;;5042664;28;20060;-72
2024/02/25 06:44:03;;;;;;;7.53;3.15;;;1.40;100.00;;;;;;5041787;28;20056;-70
2024/02/25 06:46:29;;;;;;;10.15;3.20;;;1.40;100.00;;;;;;5049079;28;20154;-70
2024/02/25 06:48:56;;;;;;;5.57;3.20;;;1.50;100.00;;;;;;5044300;28;20060;-70
2024/02/25 06:51:28;;;;;;;6.60;3.05;;;1.50;100.00;;;;;;5048003;28;20080;-70
2024/02/25 06:53:55;;;;;;;6.15;2.90;;;1.60;100.00;;;;;;5044498;28;20504;-70
2024/02/25 06:56:22;;;;;;;6.65;3.00;;;1.70;100.00;;;;;;5044810;28;20044;-70
2024/02/25 06:58:49;;;;;;;5.53;2.50;;;1.80;100.00;;;;;;5044717;28;20045;-70
2024/02/25 07:01:16;;;;;;;7.55;2.78;;;1.90;100.00;;;;;;5044713;28;20103;-70
2024/02/25 07:03:44;;;;;;;11.18;3.38;;;2.00;100.00;;;;;;5047792;28;20632;-70
2024/02/25 07:06:13;;;;;;;5.13;2.22;;;2.00;100.00;;;;;;5052620;28;20123;-71
2024/02/25 07:08:40;;;;;;;5.03;2.63;;;2.10;100.00;;;;;;5045901;28;20428;-71
2024/02/25 07:11:20;;;;;;;7.15;2.50;;;2.10;100.00;;;;;;5044235;28;20064;-71
2024/02/25 07:13:48;;;;;;;5.63;2.03;;;2.10;100.00;;;;;;5042131;28;20060;-71
2024/02/25 07:16:15;;;;;;;6.45;2.38;;;2.20;100.00;;;;;;5043754;28;20055;-71
2024/02/25 07:18:42;;;;;;;7.15;2.58;;;2.20;100.00;;;;;;5048376;28;20053;-71
2024/02/25 07:21:11;;;;;;;5.10;2.75;;;2.20;100.00;;;;;;5048323;28;20075;-70
2024/02/25 07:23:44;;;;;;;5.65;2.55;;;2.20;100.00;;;;;;5045290;28;20044;-72
2024/02/25 07:26:13;;;;;;;6.00;2.78;;;2.20;100.00;;;;;;5038884;28;20045;-72
2024/02/25 07:28:41;;;;;;;4.32;2.20;;;2.30;100.00;;;;;;5043092;28;20368;-73
2024/02/25 07:31:15;;;;;;;5.75;2.25;;;2.30;100.00;;;;;;5045254;28;20156;-73
2024/02/25 07:33:43;;;;;;;8.13;2.73;;;2.40;100.00;;;;;;5043150;28;20131;-73
2024/02/25 07:36:11;;;;;;;10.90;2.35;;;2.40;100.00;;;;;;5041056;28;20049;-72
2024/02/25 07:38:39;;;;;;;6.07;2.60;;;2.40;100.00;;;;;;5042964;28;20053;-75
2024/02/25 07:41:09;;;;;;;3.78;2.22;;;2.50;100.00;;;;;;5051165;28;20481;-75
2024/02/25 07:43:38;;;;;;;5.78;2.53;;;2.50;100.00;;;;;;5044143;28;20073;-75
2024/02/25 07:46:06;;;;;;;9.52;2.17;;;2.60;100.00;;;;;;5044420;28;20060;-75
2024/02/25 07:48:33;;;;;;;5.35;2.60;;;2.70;100.00;;;;;;5059698;28;20057;-75
2024/02/25 07:51:00;;;;;;;8.98;3.63;;;2.70;100.00;;;;;;5043050;28;20457;-75
2024/02/25 07:53:27;;;;;;;6.35;2.78;;;2.80;100.00;;;;;;5044690;28;20049;-75
2024/02/25 07:55:54;;;;;;;4.03;2.13;;;2.80;100.00;;;;;;5043766;28;20076;-75
2024/02/25 07:58:21;;;;;;;4.03;1.77;;;2.90;100.00;;;;;;5048427;28;20084;-75
2024/02/25 08:00:48;;;;;;;7.07;2.42;;;2.90;100.00;;;;;;5045978;28;20056;-74
2024/02/25 08:03:15;;;;;;;4.90;1.80;;;2.90;100.00;;;;;;5046443;28;20045;-74
2024/02/25 08:05:43;;;;;;;4.65;1.80;;;2.90;100.00;;;;;;5048475;28;20045;-74
2024/02/25 08:08:10;;;;;;;9.43;2.40;;;2.90;100.00;;;;;;5053908;28;20053;-74
2024/02/25 08:10:41;;;;;;;3.70;2.22;;;3.00;100.00;;;;;;5046132;28;20060;-75
2024/02/25 08:13:08;;;;;;;6.07;2.10;;;3.00;100.00;;;;;;5046204;28;20574;-74
2024/02/25 08:15:35;;;;;;;5.72;2.20;;;3.00;100.00;;;;;;5047354;28;20114;-74
2024/02/25 08:18:02;;;;;;;4.63;1.60;;;3.00;100.00;;;;;;5060660;28;20855;-72
2024/02/25 08:20:29;;;;;;;4.25;1.90;;;3.00;100.00;;;;;;5043969;28;20037;-72
2024/02/25 08:22:56;;;;;;;6.22;2.20;;;3.00;100.00;;;;;;5041549;28;20055;-73
2024/02/25 08:25:23;;;;;;;4.38;1.95;;;3.10;100.00;;;;;;5058150;28;20575;-73
2024/02/25 08:27:49;;;;;;;6.32;2.20;;;3.20;100.00;;;;;;5043022;28;20044;-73
2024/02/25 08:30:16;;;;;;;2.85;1.63;;;3.30;100.00;;;;;;5042194;28;20726;-72
2024/02/25 08:32:43;;;;;;;5.30;1.88;;;3.30;100.00;;;;;;5043379;28;20501;-70
2024/02/25 08:35:11;;;;;;;5.43;2.20;;;3.50;100.00;;;;;;5058841;28;20128;-71
2024/02/25 08:37:41;;;;;;;3.75;2.08;;;3.60;100.00;;;;;;5042773;28;20059;-69
2024/02/25 08:40:21;;;;;;;4.28;2.00;;;3.70;100.00;;;;;;5043367;28;20055;-73
2024/02/25 08:42:51;;;;;;;4.22;1.50;;;3.80;100.00;;;;;;5043328;28;20156;-76
2024/02/25 08:45:18;;;;;;;6.32;1.90;;;3.90;100.00;;;;;;5042382;28;21690;-70
2024/02/25 08:47:45;;;;;;;5.35;1.75;;;4.00;100.00;;;;;;5040982;28;20700;-71
2024/02/25 08:50:12;;;;;;;5.97;2.13;;;4.10;100.00;;;;;;5043142;28;20049;-70
2024/02/25 08:52:39;;;;;;;4.30;1.60;;;4.30;100.00;;;;;;5042658;28;20118;-70
2024/02/25 08:55:07;;;;;;;3.53;1.77;;;4.50;100.00;;;;;;5042508;28;20060;-70
2024/02/25 08:57:34;;;;;;;4.53;1.85;;;4.60;100.00;;;;;;5041704;28;20055;-70
2024/02/25 09:00:01;;;;;;;3.95;1.85;;;4.80;100.00;;;;;;5042711;28;20040;-75
2024/02/25 09:02:29;;;;;;;2.25;1.33;;;5.00;100.00;;;;;;5048360;28;20053;-73
2024/02/25 09:04:56;;;;;;;3.83;1.75;;;5.10;100.00;;;;;;5040041;28;20128;-73
2024/02/25 09:07:24;;;;;;;3.75;1.58;;;5.30;100.00;;;;;;5041714;28;20087;-75
2024/02/25 09:09:51;;;;;;;3.33;1.45;;;5.40;100.00;;;;;;5040795;28;20056;-73
2024/02/25 09:12:18;;;;;;;4.78;1.70;;;5.50;100.00;;;;;;5047139;28;20053;-73
2024/02/25 09:14:45;;;;;;;2.85;1.67;;;5.70;100.00;;;;;;5041420;28;20049;-76
2024/02/25 09:17:14;;;;;;;5.43;1.67;;;6.00;100.00;;;;;;5043781;28;20048;-76
2024/02/25 09:19:42;;;;;;;3.67;1.60;;;6.10;100.00;;;;;;5042430;28;20056;-75
2024/02/25 09:22:09;;;;;;;2.10;1.50;;;6.30;100.00;;;;;;5057201;28;20067;-71
2024/02/25 09:24:38;;;;;;;3.33;1.10;;;6.50;100.00;;;;;;5057046;28;20052;-71
2024/02/25 09:27:04;;;;;;;3.28;1.35;;;6.70;100.00;;;;;;5042136;28;20056;-72
2024/02/25 09:29:31;;;;;;;5.88;1.67;;;7.00;100.00;;;;;;5057389;28;20580;-71
2024/02/25 09:31:58;;;;;;;3.25;1.45;;;7.20;100.00;;;;;;5053988;28;20044;-71
2024/02/25 09:34:25;;;;;;;4.95;1.63;;;7.30;100.00;;;;;;5042555;28;20733;-71
2024/02/25 09:36:52;;;;;;;3.03;1.50;;;7.30;100.00;;;;;;5044112;28;20049;-71
2024/02/25 09:39:19;;;;;;;2.30;1.15;;;7.40;100.00;;;;;;5042751;28;20048;-71
2024/02/25 09:41:50;;;;;;;3.22;1.50;;;7.60;100.00;;;;;;5041940;28;20056;-72
2024/02/25 09:44:26;;;;;;;3.38;1.60;;;8.10;100.00;;;;;;5042462;28;20064;-72
2024/02/25 09:46:54;;;;;;;2.63;1.40;;;8.50;100.00;;;;;;5042134;28;20559;-71
2024/02/25 09:49:24;;;;;;;2.83;1.38;;;8.90;100.00;;;;;;5042659;28;20052;-71
2024/02/25 09:51:51;;;;;;;1.88;1.10;;;8.90;100.00;;;;;;5044558;28;20045;-72
2024/02/25 09:54:19;;;;;;;1.85;1.10;;;9.30;100.00;;;;;;5041549;28;20529;-71
2024/02/25 09:56:50;;;;;;;2.97;1.30;;;9.50;100.00;;;;;;5044506;28;20709;-71
2024/02/25 09:59:21;;;;;;;4.40;1.27;;;9.70;100.00;;;;;;5042397;28;20045;-72
2024/02/25 10:01:47;;;;;;;3.17;1.33;;;10.10;100.00;;;;;;5041492;28;20779;-72
2024/02/25 10:04:15;;;;;;;2.67;1.10;;;10.10;100.00;;;;;;5044078;28;20491;-72
2024/02/25 10:06:46;;;;;;;2.30;1.20;;;10.40;100.00;;;;;;5058876;28;20064;-72
2024/02/25 10:09:14;;;;;;;3.45;1.50;;;10.90;100.00;;;;;;5043151;28;20049;-72
2024/02/25 10:11:44;;;;;;;5.00;1.10;;;11.10;100.00;;;;;;5044390;28;20235;-75
2024/02/25 10:14:11;;;;;;;4.80;1.40;;;11.30;100.00;;;;;;5058320;28;20441;-73
2024/02/25 10:16:39;;;;;;;3.53;1.17;;;11.50;100.00;;;;;;5057777;28;20106;-74
2024/02/25 10:19:06;;;;;;;1.50;0.88;;;11.60;100.00;;;;;;5041173;28;20409;-74
2024/02/25 10:21:33;;;;;;;1.98;1.13;;;12.00;100.00;;;;;;5043124;28;20052;-73
2024/02/25 10:24:00;;;;;;;1.38;0.80;;;12.50;100.00;;;;;;5044117;28;20052;-73
2024/02/25 10:26:27;;;;;;;1.50;0.98;;;12.70;100.00;;;;;;5042624;28;20048;-73
2024/02/25 10:29:07;;;;;;;1.52;0.88;;;12.90;100.00;;;;;;5041612;28;20048;-73
2024/02/25 10:31:36;;;;;;;5.00;0.80;;;12.80;100.00;;;;;;5042270;28;20111;-74
2024/02/25 10:34:03;;;;;;;1.30;0.75;;;12.60;100.00;;;;;;5042950;28;20110;-74
2024/02/25 10:36:32;;;;;;;1.40;0.70;;;12.80;100.00;;;;;;5045130;28;20045;-71
2024/02/25 10:39:00;;;;;;;6.63;0.75;;;13.10;100.00;;;;;;5041260;28;20052;-70
2024/02/25 10:41:28;;;;;;;2.33;0.98;;;13.50;98.00;;;;;;5043674;28;20139;-70
2024/02/25 10:44:01;;;;;;;1.23;0.63;;;13.80;97.20;;;;;;5055543;28;20136;-70
2024/02/25 10:46:46;;;;;;;1.75;0.80;;;13.50;91.90;;;;;;5043654;28;20544;-70
2024/02/25 10:49:15;;;;;;;4.68;0.68;;;13.60;90.00;;;;;;5037648;28;20184;-70
2024/02/25 10:51:43;;;;;;;2.22;0.70;;;13.80;93.40;;;;;;5043367;28;20164;-70
2024/02/25 10:54:15;;;;;;;1.10;0.70;;;14.30;85.50;;;;;;5058766;28;20524;-70
2024/02/25 10:56:42;;;;;;;1.13;0.55;;;14.40;81.70;;;;;;5043951;28;20143;-70
2024/02/25 10:59:12;;;;;;;1.25;0.60;;;14.20;87.60;;;;;;5045237;28;20081;-70
2024/02/25 11:01:43;;;;;;;1.80;0.70;;;14.10;84.30;;;;;;5042286;28;20796;-73
2024/02/25 11:04:10;;;;;;;3.35;0.80;;;14.10;79.60;;;;;;5042565;28;20057;-73
2024/02/25 11:06:39;;;;;;;1.85;1.00;;;14.10;69.90;;;;;;5042534;28;20130;-73
2024/02/25 11:09:12;;;;;;;2.70;0.90;;;14.00;80.70;;;;;;5041941;28;20139;-73
2024/02/25 11:11:42;;;;;;;3.03;1.17;;;14.50;75.00;;;;;;5042838;28;20152;-74
2024/02/25 11:14:32;;;;;;;1.80;1.02;;;14.10;76.00;;;;;;5041451;28;20165;-74
2024/02/25 11:17:00;;;;;;;2.53;0.95;;;13.70;73.00;;;;;;5041699;28;20079;-74
2024/02/25 11:19:26;;;;;;;5.68;0.80;;;13.00;79.60;;;;;;5041702;28;20053;-74
2024/02/25 11:21:57;;;;;;;1.63;1.10;;;12.70;81.50;;;;;;5041137;28;20410;-74
2024/02/25 11:24:46;;;;;;;1.48;0.75;;;12.50;85.60;;;;;;5042232;28;20048;-74
2024/02/25 11:27:13;;;;;;;2.65;0.80;;;12.00;80.20;;;;;;5052571;28;20053;-73
2024/02/25 11:29:41;;;;;;;1.25;0.88;;;11.90;89.00;;;;;;5042974;28;20743;-73
2024/02/25 11:32:08;;;;;;;1.63;0.90;;;11.80;87.80;;;;;;5039353;28;20058;-74
2024/02/25 11:34:37;;;;;;;1.75;0.90;;;11.80;87.70;;;;;;5042768;28;20106;-74
2024/02/25 11:37:06;;;;;;;4.22;0.93;;;11.90;86.20;;;;;;5043544;28;20791;-77
2024/02/25 11:39:36;;;;;;;6.20;1.00;;;12.50;89.60;;;;;;5052047;28;20114;-74
2024/02/25 11:42:04;;;;;;;1.70;0.75;;;12.80;88.60;;;;;;5066024;28;20052;-74
2024/02/25 11:44:35;;;;;;;1.42;0.95;;;13.10;84.20;;;;;;5045072;28;20057;-73
2024/02/25 11:47:07;;;;;;;1.17;0.80;;;12.60;78.50;;;;;;5043145;28;20584;-74
2024/02/25 11:49:34;;;;;;;1.45;0.73;;;12.70;81.80;;;;;;5041714;28;20053;-74
2024/02/25 11:52:02;;;;;;;1.30;1.00;;;13.00;74.00;;;;;;5040564;28;20060;-75
2024/02/25 11:54:29;;;;;;;1.67;1.00;;;12.60;78.20;;;;;;5040909;28;20048;-75
2024/02/25 11:56:56;;;;;;;1.90;0.93;;;12.50;79.00;;;;;;5040829;28;20556;-75
2024/02/25 11:59:24;;;;;;;1.67;0.88;;;13.80;78.60;;;;;;5041306;28;20048;-75
2024/02/25 12:01:52;;;;;;;2.33;0.90;;;14.60;75.30;;;;;;5038930;28;20163;-74
2024/02/25 12:04:20;;;;;;;1.48;0.80;;;15.30;72.40;;;;;;5040851;28;20451;-74
2024/02/25 12:06:47;;;;;;;1.25;0.70;;;15.30;67.60;;;;;;5041245;28;20068;-74
2024/02/25 12:09:15;;;;;;;5.75;0.90;;;14.50;67.90;;;;;;5041731;28;20041;-75
2024/02/25 12:11:43;;;;;;;1.88;1.00;;;14.10;73.10;;;;;;5040524;28;20057;-74
2024/02/25 12:14:13;;;;;;;2.35;1.25;;;13.40;72.80;;;;;;5055841;28;20044;-74
2024/02/25 12:16:40;;;;;;;3.92;1.00;;;13.50;76.80;;;;;;5055832;28;20056;-74
2024/02/25 12:19:10;;;;;;;3.33;0.80;;;13.50;73.20;;;;;;5042169;28;20068;-74
2024/02/25 12:21:39;;;;;;;1.75;0.70;;;13.00;74.50;;;;;;5055950;28;20057;-74
2024/02/25 12:24:07;;;;;;;3.72;0.90;;;12.10;74.90;;;;;;5041620;28;20052;-74
2024/02/25 12:26:55;;;;;;;2.88;1.08;;;11.50;82.80;;;;;;5038806;28;20049;-74
2024/02/25 12:29:24;;;;;;;1.77;1.10;;;11.10;86.00;;;;;;5041769;28;20568;-74
2024/02/25 12:31:51;;;;;;;2.70;1.27;;;10.70;86.20;;;;;;5038672;28;20552;-74
2024/02/25 12:34:18;;;;;;;3.30;1.00;;;10.80;90.50;;;;;;5040851;28;20085;-74
2024/02/25 12:36:47;;;;;;;1.92;0.90;;;10.80;85.50;;;;;;5039756;28;20128;-74
2024/02/25 12:39:18;;;;;;;2.83;0.88;;;10.80;84.90;;;;;;5039206;28;20409;-74
2024/02/25 12:41:53;;;;;;;3.20;1.10;;;10.80;86.20;;;;;;5041281;28;20049;-74
2024/02/25 12:44:20;;;;;;;2.85;0.98;;;10.60;88.30;;;;;;5045915;28;20500;-74
2024/02/25 12:46:46;;;;;;;3.45;1.05;;;10.60;88.60;;;;;;5046834;28;20041;-74
2024/02/25 12:49:15;;;;;;;1.88;0.88;;;10.40;88.60;;;;;;5044883;28;20419;-75